Hiles, Wisconsin
Current Conditions -  °F | °C
As of 7:35 PM on Saturday 25 Oct 2014 (Local Time) from KEGV Reporting Station
Clear Clear  
Wind Chill: 50°   Ceiling: Unl
Heat Index: 50°   Visibility: 10mi
Dew Point: 20°   Wind: 14mph
Humidity: 30%   Direction: 300°WNW
Pressure: 29.88"   Gusts: 22mph
Location:  45.724°N, 88.8585°W
Report Text: KEGV 260035Z AUTO 30012G19KT 10SM CLR 10/M07 A2988 RMK AO2 T01021066
Loading
Personal Weather Stations






























Interactive Weather Map
Tropical Storm Tracking
New forecast layout! Learn more

10-Day Weather Forecast

Advertisements
Track Severe Weather on mobile